createdAt,value
2017-08-20T00:00:35.881Z,86.85
2017-08-20T00:03:04.321Z,86.38
2017-08-20T00:05:32.820Z,86.77
2017-08-20T00:08:01.263Z,86.97
2017-08-20T00:10:30.496Z,87.17
2017-08-20T00:12:58.981Z,86.84
2017-08-20T00:15:27.456Z,87.10
2017-08-20T00:17:56.763Z,87.06
2017-08-20T00:20:25.252Z,87.10
2017-08-20T00:22:53.699Z,87.37
2017-08-20T00:25:22.890Z,87.38
2017-08-20T00:27:52.115Z,87.63
2017-08-20T00:30:20.548Z,87.51
2017-08-20T00:32:48.992Z,87.73
2017-08-20T00:35:17.558Z,88.27
2017-08-20T00:37:46.060Z,88.00
2017-08-20T00:40:14.479Z,87.95
2017-08-20T00:42:43.020Z,88.25
2017-08-20T00:45:11.495Z,88.00
2017-08-20T00:47:39.983Z,88.00
2017-08-20T00:50:08.412Z,88.42
2017-08-20T00:52:36.955Z,88.11
2017-08-20T00:55:05.429Z,87.95
2017-08-20T00:57:33.911Z,88.53
2017-08-20T01:00:02.396Z,88.05
2017-08-20T01:02:30.862Z,88.77
2017-08-20T01:04:59.347Z,88.64
2017-08-20T01:07:27.831Z,88.62
2017-08-20T01:09:56.321Z,89.23
2017-08-20T01:12:24.801Z,89.22
2017-08-20T01:14:53.242Z,89.25
2017-08-20T01:17:21.763Z,89.04
2017-08-20T01:19:50.249Z,89.41
2017-08-20T01:22:18.728Z,89.69
2017-08-20T01:24:47.213Z,88.87
2017-08-20T01:27:15.641Z,89.24
2017-08-20T01:29:44.096Z,88.80
2017-08-20T01:32:12.519Z,89.24
2017-08-20T01:34:41.752Z,88.99
2017-08-20T01:37:10.240Z,88.79
2017-08-20T01:39:38.696Z,89.62
2017-08-20T01:42:07.197Z,88.92
2017-08-20T01:44:35.647Z,89.33
2017-08-20T01:47:04.880Z,88.97
2017-08-20T01:49:33.359Z,89.97
2017-08-20T01:52:01.784Z,90.20
2017-08-20T01:54:30.232Z,89.92
2017-08-20T01:56:58.704Z,89.80
2017-08-20T01:59:27.187Z,89.74
2017-08-20T02:01:55.610Z,89.59
2017-08-20T02:04:24.146Z,89.66
2017-08-20T02:06:52.566Z,90.02
2017-08-20T02:09:21.012Z,89.62
2017-08-20T02:11:49.488Z,89.66
2017-08-20T02:14:17.975Z,89.86
2017-08-20T02:16:46.455Z,90.00
2017-08-20T02:19:14.871Z,90.00
2017-08-20T02:21:43.312Z,90.52
2017-08-20T02:24:11.796Z,90.23
2017-08-20T02:26:40.283Z,90.09
2017-08-20T02:29:08.717Z,90.04
2017-08-20T02:31:37.248Z,89.87
2017-08-20T02:34:05.672Z,89.90
2017-08-20T02:36:34.119Z,90.17
2017-08-20T02:39:02.544Z,90.23
2017-08-20T02:41:30.992Z,90.06
2017-08-20T02:43:59.452Z,90.30
2017-08-20T02:46:27.908Z,90.51
2017-08-20T02:48:57.100Z,90.40
2017-08-20T02:51:26.331Z,90.67
2017-08-20T02:53:54.811Z,90.78
2017-08-20T02:56:23.259Z,91.37
2017-08-20T02:58:52.496Z,90.63
2017-08-20T03:01:20.966Z,91.61
2017-08-20T03:03:49.396Z,91.58
2017-08-20T03:06:17.868Z,92.05
2017-08-20T03:08:46.295Z,92.17
2017-08-20T03:11:15.520Z,91.98
2017-08-20T03:13:44.004Z,91.87
2017-08-20T03:16:12.480Z,91.08
2017-08-20T03:18:40.967Z,91.38
2017-08-20T03:21:09.391Z,91.31
2017-08-20T03:23:37.932Z,91.15
2017-08-20T03:26:06.407Z,90.60
2017-08-20T03:28:34.892Z,91.25
2017-08-20T03:31:03.370Z,90.90
2017-08-20T03:33:31.859Z,91.47
2017-08-20T03:36:00.336Z,91.70
2017-08-20T03:38:28.825Z,91.71
2017-08-20T03:40:57.251Z,92.21
2017-08-20T03:43:25.691Z,91.80
2017-08-20T03:45:54.106Z,92.27
2017-08-20T03:48:22.560Z,92.34
2017-08-20T03:50:51.029Z,92.13
2017-08-20T03:53:19.485Z,92.58
2017-08-20T03:55:48.707Z,92.15
2017-08-20T03:58:17.193Z,91.73
2017-08-20T04:00:45.620Z,91.23
2017-08-20T04:03:14.143Z,91.37
2017-08-20T04:05:42.632Z,91.10
2017-08-20T04:08:11.089Z,91.08
2017-08-20T04:10:40.283Z,91.46
2017-08-20T04:13:09.507Z,90.91
2017-08-20T04:15:37.991Z,91.21
2017-08-20T04:18:06.486Z,90.86
2017-08-20T04:20:34.955Z,90.80
2017-08-20T04:23:03.385Z,90.51
2017-08-20T04:25:31.924Z,90.09
2017-08-20T04:28:00.411Z,89.64
2017-08-20T04:30:28.864Z,89.85
2017-08-20T04:32:58.057Z,89.97
2017-08-20T04:35:27.389Z,90.06
2017-08-20T04:37:55.863Z,89.88
2017-08-20T04:40:24.352Z,89.77
2017-08-20T04:42:52.831Z,89.95
2017-08-20T04:45:21.309Z,89.04
2017-08-20T04:47:49.741Z,89.49
2017-08-20T04:50:18.195Z,89.29
2017-08-20T04:52:46.623Z,88.96
2017-08-20T04:55:15.844Z,88.66
2017-08-20T04:57:44.331Z,88.27
2017-08-20T05:00:12.784Z,88.06
2017-08-20T05:02:41.988Z,88.14
2017-08-20T05:05:11.220Z,87.87
2017-08-20T05:07:39.709Z,87.82
2017-08-20T05:10:08.156Z,87.52
2017-08-20T05:12:37.379Z,87.52
2017-08-20T05:15:05.855Z,87.18
2017-08-20T05:17:34.287Z,87.20
2017-08-20T05:20:02.761Z,86.77
2017-08-20T05:22:31.188Z,86.23
2017-08-20T05:24:59.625Z,85.93
2017-08-20T05:27:28.172Z,85.67
2017-08-20T05:29:56.667Z,85.58
2017-08-20T05:32:25.135Z,85.42
2017-08-20T05:34:53.559Z,85.44
2017-08-20T05:37:22.114Z,85.20
2017-08-20T05:39:50.539Z,85.47
2017-08-20T05:42:18.987Z,85.07
2017-08-20T05:44:47.443Z,85.13
2017-08-20T05:47:15.945Z,85.11
2017-08-20T05:49:44.389Z,85.15
2017-08-20T05:52:12.883Z,84.96
2017-08-20T05:54:41.309Z,84.65
2017-08-20T05:57:09.852Z,84.43
2017-08-20T05:59:38.279Z,84.46
2017-08-20T06:02:06.819Z,84.20
2017-08-20T06:04:35.238Z,83.90
2017-08-20T06:07:03.675Z,83.48
2017-08-20T06:09:32.164Z,83.48
2017-08-20T06:12:00.606Z,83.19
2017-08-20T06:14:29.834Z,83.00
2017-08-20T06:16:58.288Z,82.05
2017-08-20T06:19:27.519Z,82.41
2017-08-20T06:21:55.953Z,82.08
2017-08-20T06:24:24.403Z,81.41
2017-08-20T06:26:52.864Z,81.10
2017-08-20T06:29:21.348Z,81.11
2017-08-20T06:31:49.827Z,80.53
2017-08-20T06:34:18.284Z,79.16
2017-08-20T06:36:47.507Z,79.21
2017-08-20T06:39:15.996Z,79.26
2017-08-20T06:41:44.472Z,79.27
2017-08-20T06:44:12.947Z,78.52
2017-08-20T06:46:41.436Z,78.07
2017-08-20T06:49:09.884Z,77.97
2017-08-20T06:51:39.112Z,77.25
2017-08-20T06:54:07.676Z,76.86
2017-08-20T06:56:36.864Z,77.20
2017-08-20T06:59:06.200Z,76.84
2017-08-20T07:01:34.632Z,76.48
2017-08-20T07:04:03.163Z,76.24
2017-08-20T07:06:31.583Z,76.00
2017-08-20T07:09:00.127Z,75.48
2017-08-20T07:11:28.611Z,75.05
2017-08-20T07:13:57.096Z,74.98
2017-08-20T07:16:25.580Z,74.69
2017-08-20T07:18:54.028Z,74.18
2017-08-20T07:21:23.220Z,73.78
2017-08-20T07:23:52.456Z,72.50
2017-08-20T07:26:20.887Z,72.63
2017-08-20T07:28:49.360Z,72.38
2017-08-20T07:31:17.895Z,72.34
2017-08-20T07:33:46.384Z,71.84
2017-08-20T07:36:14.831Z,71.55
2017-08-20T07:38:44.067Z,71.64
2017-08-20T07:41:12.548Z,71.47
2017-08-20T07:43:40.975Z,71.22
2017-08-20T07:46:09.432Z,70.91
2017-08-20T07:48:37.856Z,71.00
2017-08-20T07:51:07.061Z,71.44
2017-08-20T07:53:36.256Z,71.67
2017-08-20T07:56:05.488Z,71.29
2017-08-20T07:58:33.916Z,71.86
2017-08-20T08:01:02.447Z,71.35
2017-08-20T08:03:30.932Z,70.20
2017-08-20T08:05:59.375Z,69.82
2017-08-20T08:08:28.612Z,69.30
2017-08-20T08:10:57.052Z,69.30
2017-08-20T08:13:26.255Z,69.81
2017-08-20T08:15:55.501Z,69.91
2017-08-20T08:18:23.976Z,70.55
2017-08-20T08:20:52.455Z,68.61
2017-08-20T08:23:20.879Z,67.40
2017-08-20T08:25:49.328Z,68.07
2017-08-20T08:28:17.815Z,67.76
2017-08-20T08:30:46.271Z,68.65
2017-08-20T08:33:14.766Z,68.12
2017-08-20T08:35:43.203Z,68.97
2017-08-20T08:38:12.399Z,68.68
2017-08-20T08:40:40.868Z,68.32
2017-08-20T08:43:09.407Z,67.79
2017-08-20T08:45:37.887Z,67.25
2017-08-20T08:48:06.372Z,67.83
2017-08-20T08:50:34.852Z,67.17
2017-08-20T08:53:03.326Z,66.26
2017-08-20T08:55:31.816Z,66.33
2017-08-20T08:58:01.019Z,66.68
2017-08-20T09:00:29.452Z,66.08
2017-08-20T09:02:57.984Z,66.02
2017-08-20T09:05:26.407Z,66.56
2017-08-20T09:07:54.944Z,67.37
2017-08-20T09:10:23.435Z,66.12
2017-08-20T09:12:51.907Z,66.17
2017-08-20T09:15:20.331Z,65.20
2017-08-20T09:17:48.870Z,64.47
2017-08-20T09:20:17.348Z,63.69
2017-08-20T09:22:45.836Z,63.22
2017-08-20T09:25:14.264Z,61.42
2017-08-20T09:27:42.709Z,61.42
2017-08-20T09:30:11.179Z,62.54
2017-08-20T09:32:39.663Z,63.46
2017-08-20T09:35:08.091Z,62.81
2017-08-20T09:37:36.537Z,63.02
2017-08-20T09:40:05.004Z,63.89
2017-08-20T09:42:33.583Z,64.41
2017-08-20T09:45:02.016Z,61.02
2017-08-20T09:47:30.443Z,62.59
2017-08-20T09:49:58.931Z,60.68
2017-08-20T09:52:27.416Z,60.50
2017-08-20T09:54:55.869Z,61.59
2017-08-20T09:57:25.068Z,60.85
2017-08-20T09:59:54.397Z,58.95
2017-08-20T10:02:22.876Z,58.07
2017-08-20T10:04:51.354Z,58.27
2017-08-20T10:07:19.839Z,57.08
2017-08-20T10:09:48.283Z,57.17
2017-08-20T10:12:17.522Z,55.89
2017-08-20T10:14:47.747Z,55.83
2017-08-20T10:17:16.178Z,55.83
2017-08-20T10:19:44.624Z,54.98
2017-08-20T10:22:13.056Z,53.91
2017-08-20T10:24:42.287Z,53.94
2017-08-20T10:27:10.717Z,54.71
2017-08-20T10:29:39.173Z,54.91
2017-08-20T10:32:07.642Z,55.36
2017-08-20T10:34:36.087Z,56.01
2017-08-20T10:37:05.322Z,55.09
2017-08-20T10:39:33.811Z,53.86
2017-08-20T10:42:02.287Z,54.59
2017-08-20T10:44:30.749Z,53.82
2017-08-20T10:46:59.175Z,52.59
2017-08-20T10:49:27.635Z,52.38
2017-08-20T10:51:56.117Z,53.17
2017-08-20T10:54:24.679Z,52.84
2017-08-20T10:56:53.163Z,54.00
2017-08-20T10:59:21.602Z,55.35
2017-08-20T11:01:50.055Z,55.30
2017-08-20T11:04:18.484Z,56.24
2017-08-20T11:06:47.714Z,54.98
2017-08-20T11:09:16.205Z,54.72
2017-08-20T11:11:44.671Z,53.49
2017-08-20T11:14:13.107Z,52.79
2017-08-20T11:16:41.640Z,53.93
2017-08-20T11:19:10.119Z,52.21
2017-08-20T11:21:38.567Z,51.45
2017-08-20T11:24:07.813Z,52.51
2017-08-20T11:26:36.260Z,51.23
2017-08-20T11:29:05.494Z,50.54
2017-08-20T11:31:33.953Z,51.56
2017-08-20T11:34:02.453Z,51.81
2017-08-20T11:36:30.928Z,52.48
2017-08-20T11:38:59.426Z,52.09
2017-08-20T11:41:28.026Z,51.92
2017-08-20T11:43:56.580Z,49.56
2017-08-20T11:46:25.032Z,50.60
2017-08-20T11:48:54.259Z,51.13
2017-08-20T11:51:22.744Z,51.89
2017-08-20T11:53:51.219Z,52.14
2017-08-20T11:56:19.699Z,51.30
2017-08-20T11:58:48.188Z,52.66
2017-08-20T12:01:16.678Z,51.97
2017-08-20T12:03:45.142Z,53.07
2017-08-20T12:06:13.624Z,52.31
2017-08-20T12:08:42.127Z,53.16
2017-08-20T12:11:10.612Z,52.60
2017-08-20T12:13:39.073Z,52.32
2017-08-20T12:16:07.494Z,50.42
2017-08-20T12:18:36.801Z,50.54
2017-08-20T12:21:05.354Z,50.59
2017-08-20T12:23:33.829Z,50.33
2017-08-20T12:26:02.251Z,51.80
2017-08-20T12:28:30.787Z,53.17
2017-08-20T12:30:59.282Z,53.54
2017-08-20T12:33:27.756Z,52.82
2017-08-20T12:35:56.245Z,50.26
2017-08-20T12:38:24.734Z,49.63
2017-08-20T12:40:53.174Z,50.27
2017-08-20T12:43:22.416Z,49.86
2017-08-20T12:45:50.847Z,50.85
2017-08-20T12:48:20.090Z,50.18
2017-08-20T12:50:48.515Z,49.06
2017-08-20T12:53:17.044Z,48.90
2017-08-20T12:55:45.468Z,49.83
2017-08-20T12:58:13.925Z,50.73
2017-08-20T13:00:42.360Z,49.24
2017-08-20T13:03:11.697Z,49.79
2017-08-20T13:05:40.134Z,50.48
2017-08-20T13:08:09.367Z,50.31
2017-08-20T13:10:37.809Z,51.26
2017-08-20T13:13:06.347Z,50.31
2017-08-20T13:15:34.775Z,50.32
2017-08-20T13:18:04.022Z,51.90
2017-08-20T13:20:32.512Z,51.68
2017-08-20T13:23:00.980Z,52.20
2017-08-20T13:25:29.469Z,52.01
2017-08-20T13:27:57.944Z,52.26
2017-08-20T13:30:26.439Z,51.60
2017-08-20T13:32:54.895Z,52.16
2017-08-20T13:35:23.395Z,52.95
2017-08-20T13:37:51.836Z,51.85
2017-08-20T13:40:21.589Z,51.06
2017-08-20T13:42:50.071Z,51.12
2017-08-20T13:45:18.554Z,50.52
2017-08-20T13:47:46.984Z,50.67
2017-08-20T13:50:15.446Z,51.03
2017-08-20T13:52:43.992Z,50.39
2017-08-20T13:55:12.490Z,50.16
2017-08-20T13:57:40.969Z,50.17
2017-08-20T14:00:09.430Z,50.78
2017-08-20T14:02:37.921Z,51.44
2017-08-20T14:05:06.364Z,52.26
2017-08-20T14:07:35.613Z,53.36
2017-08-20T14:10:04.080Z,52.57
2017-08-20T14:12:32.559Z,52.16
2017-08-20T14:15:01.012Z,51.22
2017-08-20T14:17:30.212Z,50.02
2017-08-20T14:19:59.433Z,50.02
2017-08-20T14:22:27.865Z,50.09
2017-08-20T14:24:56.421Z,50.64
2017-08-20T14:27:24.898Z,49.94
2017-08-20T14:29:53.379Z,49.42
2017-08-20T14:32:21.824Z,48.24
2017-08-20T14:34:51.016Z,47.90
2017-08-20T14:37:20.254Z,48.36
2017-08-20T14:39:48.692Z,48.70
2017-08-20T14:42:17.945Z,48.24
2017-08-20T14:44:46.402Z,48.80
2017-08-20T14:47:14.903Z,49.26
2017-08-20T14:49:43.386Z,48.84
2017-08-20T14:52:11.851Z,49.26
2017-08-20T14:54:40.289Z,49.58
2017-08-20T14:57:08.830Z,49.78
2017-08-20T14:59:37.288Z,49.47
2017-08-20T15:02:05.788Z,49.72
2017-08-20T15:04:34.282Z,49.83
2017-08-20T15:07:02.747Z,50.07
2017-08-20T15:09:31.228Z,50.01
2017-08-20T15:11:59.684Z,50.96
2017-08-20T15:14:28.879Z,54.64
2017-08-20T15:16:58.101Z,58.94
2017-08-20T15:19:26.524Z,61.08
2017-08-20T15:21:54.969Z,60.71
2017-08-20T15:24:23.453Z,61.96
2017-08-20T15:26:51.945Z,61.60
2017-08-20T15:29:20.391Z,61.47
2017-08-20T15:31:49.603Z,61.85
2017-08-20T15:34:18.032Z,63.05
2017-08-20T15:36:46.468Z,65.16
2017-08-20T15:39:14.915Z,66.17
2017-08-20T15:41:43.440Z,67.47
2017-08-20T15:44:11.902Z,67.43
2017-08-20T15:46:40.422Z,67.89
2017-08-20T15:49:08.892Z,68.89
2017-08-20T15:51:37.367Z,69.85
2017-08-20T15:54:05.856Z,72.98
2017-08-20T15:56:34.292Z,75.22
2017-08-20T15:59:02.757Z,75.65
2017-08-20T16:01:31.180Z,77.75
2017-08-20T16:03:59.680Z,76.72
2017-08-20T16:06:28.159Z,80.46
2017-08-20T16:08:56.635Z,80.76
2017-08-20T16:11:25.138Z,80.37
2017-08-20T16:13:53.608Z,81.95
2017-08-20T16:16:22.093Z,81.85
2017-08-20T16:18:50.568Z,81.24
2017-08-20T16:21:18.996Z,81.70
2017-08-20T16:23:47.543Z,81.24
2017-08-20T16:26:16.017Z,81.52
2017-08-20T16:28:44.496Z,82.40
2017-08-20T16:31:12.979Z,81.56
2017-08-20T16:33:41.475Z,81.89
2017-08-20T16:36:09.940Z,81.06
2017-08-20T16:38:38.402Z,81.41
2017-08-20T16:41:06.921Z,80.76
2017-08-20T16:43:35.487Z,79.63
2017-08-20T16:46:03.924Z,81.22
2017-08-20T16:48:32.352Z,79.99
2017-08-20T16:51:00.836Z,77.96
2017-08-20T16:53:29.315Z,76.55
2017-08-20T16:55:57.773Z,77.64
2017-08-20T16:58:26.973Z,78.25
2017-08-20T17:00:55.440Z,77.62
2017-08-20T17:03:24.691Z,79.56
2017-08-20T17:05:53.156Z,79.20
2017-08-20T17:08:21.630Z,78.64
2017-08-20T17:10:50.131Z,78.80
2017-08-20T17:13:18.621Z,79.48
2017-08-20T17:15:47.085Z,81.43
2017-08-20T17:18:15.578Z,81.50
2017-08-20T17:20:44.037Z,80.52
2017-08-20T17:23:12.541Z,81.23
2017-08-20T17:25:41.028Z,81.11
2017-08-20T17:28:09.512Z,81.44
2017-08-20T17:30:37.994Z,81.35
2017-08-20T17:33:06.767Z,81.33
2017-08-20T17:35:35.261Z,81.41
2017-08-20T17:38:04.523Z,81.55
2017-08-20T17:40:33.849Z,81.32
2017-08-20T17:43:02.271Z,82.91
2017-08-20T17:45:30.754Z,82.95
2017-08-20T17:47:59.287Z,83.30
2017-08-20T17:50:27.785Z,82.61
2017-08-20T17:52:56.246Z,82.41
2017-08-20T17:55:24.757Z,81.98
2017-08-20T17:57:53.234Z,82.23
2017-08-20T18:00:21.722Z,82.42
2017-08-20T18:02:50.205Z,82.45
2017-08-20T18:05:18.677Z,82.29
2017-08-20T18:07:47.154Z,82.25
2017-08-20T18:10:15.636Z,82.09
2017-08-20T18:12:44.126Z,82.10
2017-08-20T18:15:12.596Z,82.71
2017-08-20T18:17:41.053Z,82.63
2017-08-20T18:20:10.285Z,82.77
2017-08-20T18:22:38.733Z,83.22
2017-08-20T18:25:07.974Z,83.33
2017-08-20T18:27:36.443Z,83.88
2017-08-20T18:30:04.923Z,84.60
2017-08-20T18:32:33.366Z,84.86
2017-08-20T18:35:02.604Z,85.27
2017-08-20T18:37:31.060Z,85.56
2017-08-20T18:40:00.284Z,86.43
2017-08-20T18:42:28.712Z,86.26
2017-08-20T18:44:57.270Z,86.67
2017-08-20T18:47:25.835Z,86.95
2017-08-20T18:49:54.294Z,87.50
2017-08-20T18:52:22.807Z,87.55
2017-08-20T18:54:51.276Z,88.05
2017-08-20T18:57:19.710Z,87.67
2017-08-20T18:59:48.239Z,88.85
2017-08-20T19:02:16.710Z,88.53
2017-08-20T19:04:45.223Z,88.78
2017-08-20T19:07:13.673Z,88.82
2017-08-20T19:09:42.171Z,88.22
2017-08-20T19:12:10.658Z,88.22
2017-08-20T19:14:39.148Z,88.12
2017-08-20T19:17:07.630Z,88.11
2017-08-20T19:19:36.106Z,88.17
2017-08-20T19:22:04.583Z,88.21
2017-08-20T19:24:33.031Z,88.42
2017-08-20T19:27:02.271Z,87.85
2017-08-20T19:29:30.735Z,87.39
2017-08-20T19:31:59.194Z,88.12
2017-08-20T19:34:27.709Z,87.97
2017-08-20T19:36:56.197Z,87.89
2017-08-20T19:39:24.679Z,87.34
2017-08-20T19:41:53.153Z,86.43
2017-08-20T19:44:21.643Z,86.49
2017-08-20T19:46:50.109Z,87.28
2017-08-20T19:49:18.604Z,86.63
2017-08-20T19:51:47.090Z,86.83
2017-08-20T19:54:15.578Z,86.63
2017-08-20T19:56:44.026Z,86.78
2017-08-20T19:59:12.518Z,85.59
2017-08-20T20:01:40.963Z,85.89
2017-08-20T20:04:09.388Z,85.99
2017-08-20T20:06:37.864Z,85.86
2017-08-20T20:09:06.352Z,86.58
2017-08-20T20:11:34.778Z,86.60
2017-08-20T20:14:03.329Z,86.54
2017-08-20T20:16:31.800Z,86.13
2017-08-20T20:19:00.293Z,85.91
2017-08-20T20:21:28.720Z,86.03
2017-08-20T20:23:57.969Z,86.75
2017-08-20T20:26:26.396Z,86.36
2017-08-20T20:28:54.932Z,86.63
2017-08-20T20:31:23.374Z,86.60
2017-08-20T20:33:52.598Z,87.29
2017-08-20T20:36:21.092Z,87.35
2017-08-20T20:38:49.567Z,86.65
2017-08-20T20:41:18.059Z,86.97
2017-08-20T20:43:46.542Z,86.65
2017-08-20T20:46:14.972Z,87.58
2017-08-20T20:48:43.424Z,88.04
2017-08-20T20:51:11.889Z,87.28
2017-08-20T20:53:40.366Z,87.28
2017-08-20T20:56:08.849Z,87.55
2017-08-20T20:58:37.420Z,87.43
2017-08-20T21:01:05.914Z,87.49
2017-08-20T21:03:34.373Z,88.94
2017-08-20T21:06:02.836Z,88.67
2017-08-20T21:08:32.072Z,88.60
2017-08-20T21:11:00.543Z,88.69
2017-08-20T21:13:28.983Z,89.68
2017-08-20T21:15:57.529Z,89.67
2017-08-20T21:18:25.997Z,90.19
2017-08-20T21:20:54.440Z,89.22
2017-08-20T21:23:23.688Z,89.39
2017-08-20T21:25:52.155Z,90.48
2017-08-20T21:28:20.639Z,90.40
2017-08-20T21:30:49.132Z,90.09
2017-08-20T21:33:17.568Z,89.72
2017-08-20T21:35:46.813Z,90.00
2017-08-20T21:38:15.257Z,89.81
2017-08-20T21:40:44.482Z,89.89
2017-08-20T21:43:12.965Z,90.09
2017-08-20T21:45:41.443Z,89.94
2017-08-20T21:48:09.886Z,90.16
2017-08-20T21:50:38.336Z,90.33
2017-08-20T21:53:06.787Z,90.54
2017-08-20T21:55:35.266Z,90.55
2017-08-20T21:58:03.756Z,90.46
2017-08-20T22:00:32.247Z,90.76
2017-08-20T22:03:00.688Z,91.05
2017-08-20T22:05:30.025Z,90.80
2017-08-20T22:07:58.506Z,90.98
2017-08-20T22:10:26.953Z,90.74
2017-08-20T22:12:56.196Z,91.21
2017-08-20T22:15:24.674Z,90.96
2017-08-20T22:17:53.112Z,91.17
2017-08-20T22:20:22.336Z,91.45
2017-08-20T22:22:50.775Z,91.49
2017-08-20T22:25:19.230Z,91.63
2017-08-20T22:27:47.688Z,91.75
2017-08-20T22:30:16.167Z,91.41
2017-08-20T22:32:44.661Z,91.70
2017-08-20T22:35:13.140Z,91.89
2017-08-20T22:37:41.607Z,92.23
2017-08-20T22:40:10.105Z,92.24
2017-08-20T22:42:38.576Z,92.36
2017-08-20T22:45:07.064Z,92.60
2017-08-20T22:47:35.549Z,92.31
2017-08-20T22:50:03.967Z,92.50
2017-08-20T22:52:32.503Z,92.27
2017-08-20T22:55:01.004Z,92.44
2017-08-20T22:57:29.476Z,92.48
2017-08-20T22:59:57.963Z,92.74
2017-08-20T23:02:26.424Z,92.69
2017-08-20T23:04:54.852Z,92.84
2017-08-20T23:07:23.304Z,92.69
2017-08-20T23:09:51.774Z,92.47
2017-08-20T23:12:20.259Z,92.92
2017-08-20T23:14:48.738Z,92.74
2017-08-20T23:17:17.207Z,93.07
2017-08-20T23:19:45.635Z,92.95
2017-08-20T23:22:14.197Z,93.24
2017-08-20T23:24:42.672Z,93.39
2017-08-20T23:27:11.110Z,93.06
2017-08-20T23:29:39.536Z,92.82
2017-08-20T23:32:07.993Z,92.83
2017-08-20T23:34:36.499Z,93.08
2017-08-20T23:37:04.957Z,93.06
2017-08-20T23:39:33.455Z,93.29
2017-08-20T23:42:01.909Z,93.01
2017-08-20T23:44:31.243Z,92.93
2017-08-20T23:46:59.992Z,92.89
2017-08-20T23:49:28.514Z,93.17
2017-08-20T23:51:56.988Z,92.96
2017-08-20T23:54:25.482Z,93.04
2017-08-20T23:56:53.965Z,93.23
2017-08-20T23:59:22.405Z,93.21
